Time;durP1;ratioP1;P1;durP2;ratioP2;P2;SDS_P1;SDS_P2;PMS_P1;PMS_P2;Temp;Humidity;BMP_temperature;BMP_pressure;BME280_temperature;BME280_humidity;BME280_pressure;Samples;Min_cycle;Max_cycle;Signal;HPM_P1;HPM_P2
2023/01/12 00:02:20;;;;;;;26.00;18.87;;;;;;;2.19;100.00;100814.23;1477876;88;21755;-83
2023/01/12 00:04:46;;;;;;;27.77;18.43;;;;;;;2.18;100.00;100819.52;1484315;87;21929;-83
2023/01/12 00:07:14;;;;;;;26.17;18.37;;;;;;;2.19;100.00;100822.06;1484991;88;21877;-83
2023/01/12 00:09:41;;;;;;;22.87;17.77;;;;;;;2.26;100.00;100823.39;1477577;87;21979;-83
2023/01/12 00:12:10;;;;;;;25.33;15.87;;;;;;;2.23;100.00;100818.34;1483440;87;21908;-84
2023/01/12 00:14:38;;;;;;;23.77;15.80;;;;;;;2.29;100.00;100822.38;1459570;88;21770;-84
2023/01/12 00:17:05;;;;;;;23.07;16.07;;;;;;;2.29;100.00;100822.38;1483600;87;22724;-83
2023/01/12 00:19:32;;;;;;;22.30;16.37;;;;;;;2.32;100.00;100821.38;1488982;88;21958;-82
2023/01/12 00:24:45;;;;;;;23.73;16.33;;;;;;;2.32;100.00;100829.21;1458943;88;21683;-84
2023/01/12 00:27:15;;;;;;;20.60;14.73;;;;;;;2.29;100.00;100821.08;1484306;88;21806;-81
2023/01/12 00:29:42;;;;;;;23.90;16.83;;;;;;;2.34;100.00;100825.59;1482518;88;22881;-80
2023/01/12 00:32:15;;;;;;;18.93;15.03;;;;;;;2.34;100.00;100825.59;1485028;87;22143;-81
2023/01/12 00:34:42;;;;;;;21.77;16.30;;;;;;;2.38;100.00;100810.58;1491205;87;22696;-81
2023/01/12 00:37:08;;;;;;;22.37;16.17;;;;;;;2.39;100.00;100824.88;1491987;88;21769;-82
2023/01/12 00:39:35;;;;;;;23.90;17.30;;;;;;;2.36;100.00;100815.91;1477050;88;21814;-79
2023/01/12 00:47:34;;;;;;;25.17;17.03;;;;;;;2.38;100.00;100832.78;1477271;87;21861;-82
2023/01/12 00:50:00;;;;;;;23.07;16.43;;;;;;;2.38;100.00;100832.78;1486355;88;21918;-83
2023/01/12 00:52:27;;;;;;;21.47;16.07;;;;;;;2.38;100.00;100843.23;1483683;88;21841;-82
2023/01/12 00:54:53;;;;;;;18.97;13.93;;;;;;;2.38;100.00;100844.54;1457979;88;21500;-82
2023/01/12 00:57:20;;;;;;;21.50;14.07;;;;;;;2.40;100.00;100842.70;1491992;87;22023;-82
2023/01/12 00:59:46;;;;;;;21.20;15.53;;;;;;;2.40;100.00;100845.30;1490311;88;21943;-81
2023/01/12 01:02:13;;;;;;;24.87;17.13;;;;;;;2.41;100.00;100840.45;1486800;88;21846;-81
2023/01/12 01:04:39;;;;;;;21.90;15.03;;;;;;;2.41;100.00;100837.84;1485147;87;21800;-81
2023/01/12 01:07:06;;;;;;;23.00;16.10;;;;;;;2.39;100.00;100831.88;1476345;88;21739;-81
2023/01/12 01:09:32;;;;;;;25.30;16.33;;;;;;;2.39;100.00;100831.88;1487720;88;21892;-84
2023/01/12 01:11:58;;;;;;;23.10;16.17;;;;;;;2.37;100.00;100841.56;1484386;88;23074;-85
2023/01/12 01:14:25;;;;;;;19.13;13.80;;;;;;;2.37;100.00;100840.25;1482480;87;21809;-83
2023/01/12 01:16:51;;;;;;;21.63;15.57;;;;;;;2.43;100.00;100839.91;1483096;88;21822;-81
2023/01/12 01:19:17;;;;;;;20.47;14.50;;;;;;;2.43;100.00;100839.91;1481499;88;21969;-82
2023/01/12 01:21:44;;;;;;;22.27;15.40;;;;;;;2.41;100.00;100845.67;1482872;87;22822;-82
2023/01/12 01:24:13;;;;;;;21.10;15.67;;;;;;;2.37;100.00;100846.78;1479870;87;22300;-82
2023/01/12 01:26:40;;;;;;;27.13;16.80;;;;;;;2.37;100.00;100846.78;1434257;88;23357;-82
2023/01/12 01:29:07;;;;;;;24.10;15.67;;;;;;;2.34;100.00;100852.18;1490624;87;22102;-81
2023/01/12 01:31:34;;;;;;;22.83;15.20;;;;;;;2.29;100.00;100851.58;1483282;88;21842;-82
2023/01/12 01:34:00;;;;;;;22.30;15.07;;;;;;;2.28;100.00;100849.91;1475311;87;22034;-81
2023/01/12 01:36:27;;;;;;;20.77;14.23;;;;;;;2.22;100.00;100859.76;1494803;87;21853;-82
2023/01/12 01:38:53;;;;;;;26.80;16.20;;;;;;;2.22;100.00;100859.76;1483110;87;21859;-82
2023/01/12 01:41:27;;;;;;;18.83;14.10;;;;;;;2.22;100.00;100859.76;1483747;87;21889;-81
2023/01/12 01:44:01;;;;;;;19.83;13.30;;;;;;;2.22;100.00;100859.76;1486949;88;22681;-82
2023/01/12 01:46:36;;;;;;;25.67;16.20;;;;;;;2.22;100.00;100854.53;1486417;87;21740;-81
2023/01/12 01:49:13;;;;;;;24.87;16.00;;;;;;;2.21;100.00;100851.52;1459747;88;22020;-82
2023/01/12 01:51:41;;;;;;;20.87;14.97;;;;;;;2.21;100.00;100851.52;1475730;88;21983;-84
2023/01/12 01:54:07;;;;;;;25.17;15.57;;;;;;;2.17;100.00;100844.80;1487077;87;22587;-84
2023/01/12 01:56:34;;;;;;;19.00;13.53;;;;;;;2.15;100.00;100842.72;1478381;87;22009;-84
2023/01/12 01:59:08;;;;;;;20.60;16.13;;;;;;;2.12;100.00;100837.67;1479865;88;21801;-84
2023/01/12 02:01:36;;;;;;;22.23;15.20;;;;;;;2.12;100.00;100836.36;1478710;88;21752;-84
2023/01/12 02:04:03;;;;;;;25.33;16.87;;;;;;;2.11;100.00;100835.99;1479438;88;21935;-83
2023/01/12 02:06:30;;;;;;;24.87;16.67;;;;;;;2.09;100.00;100837.00;1494715;88;21914;-83
2023/01/12 02:09:07;;;;;;;25.73;16.60;;;;;;;2.09;100.00;100841.75;1456338;88;21685;-84
2023/01/12 02:17:48;;;;;;;22.63;13.57;;;;;;;1.99;100.00;100849.72;1486397;87;22911;-82
2023/01/12 02:20:47;;;;;;;25.40;14.50;;;;;;;1.87;100.00;100850.35;1485080;88;21701;-83
2023/01/12 02:24:05;;;;;;;24.13;16.30;;;;;;;1.85;100.00;100849.61;1478084;88;21835;-83
2023/01/12 02:27:10;;;;;;;25.43;15.10;;;;;;;1.85;100.00;100832.17;1483430;88;21722;-81
2023/01/12 02:30:12;;;;;;;23.63;15.90;;;;;;;1.85;100.00;100832.17;1482725;88;21659;-80
2023/01/12 02:32:53;;;;;;;25.53;16.00;;;;;;;1.86;100.00;100842.16;1407278;92;21818;-80
2023/01/12 02:35:30;;;;;;;26.68;18.77;;;;;;;1.83;100.00;100853.59;1472813;88;21731;-81
2023/01/12 02:38:30;;;;;;;29.93;19.23;;;;;;;1.76;100.00;100853.55;1481497;88;21469;-80
2023/01/12 02:41:14;;;;;;;26.55;17.70;;;;;;;1.71;100.00;100859.00;1484942;88;22664;-81
2023/01/12 02:43:41;;;;;;;21.60;16.13;;;;;;;1.66;100.00;100853.64;1485494;87;21426;-80
2023/01/12 02:46:27;;;;;;;24.93;15.53;;;;;;;1.64;100.00;100860.26;1485931;88;21753;-80
2023/01/12 02:49:11;;;;;;;24.67;17.30;;;;;;;1.66;100.00;100862.30;1491041;87;21669;-80
2023/01/12 02:51:46;;;;;;;23.70;16.37;;;;;;;1.69;100.00;100856.09;1479074;88;21744;-80
2023/01/12 02:54:17;;;;;;;19.33;14.27;;;;;;;1.73;100.00;100861.55;1482380;88;22760;-80
2023/01/12 02:56:48;;;;;;;29.52;16.25;;;;;;;1.78;100.00;100858.20;1480585;87;21807;-80
2023/01/12 02:59:25;;;;;;;29.45;17.12;;;;;;;1.77;100.00;100844.32;1494207;88;21455;-80
2023/01/12 03:01:57;;;;;;;30.13;16.30;;;;;;;1.84;100.00;100862.27;1483589;88;21455;-80
2023/01/12 03:04:26;;;;;;;26.93;17.27;;;;;;;1.83;100.00;100854.06;1483705;87;21543;-79
2023/01/12 03:07:01;;;;;;;26.57;18.03;;;;;;;1.80;100.00;100850.68;1485454;88;23078;-81
2023/01/12 03:09:35;;;;;;;28.03;18.50;;;;;;;1.79;100.00;100849.47;1488678;87;21690;-80
2023/01/12 03:12:07;;;;;;;25.00;17.83;;;;;;;1.78;100.00;100848.63;1484267;88;21939;-82
2023/01/12 03:14:38;;;;;;;25.90;18.33;;;;;;;1.78;100.00;100844.72;1485159;88;21867;-80
2023/01/12 03:17:08;;;;;;;21.52;14.07;;;;;;;1.78;100.00;100847.33;1487942;87;21664;-80
2023/01/12 03:19:35;;;;;;;27.75;17.07;;;;;;;1.79;100.00;100849.00;1493322;87;21375;-82
2023/01/12 03:22:09;;;;;;;26.50;16.93;;;;;;;1.83;100.00;100845.77;1484127;88;21331;-82
2023/01/12 03:24:43;;;;;;;24.23;16.17;;;;;;;1.83;100.00;100844.45;1482080;87;21718;-81
2023/01/12 03:27:33;;;;;;;27.47;16.70;;;;;;;1.84;100.00;100838.77;1480936;88;21751;-82
2023/01/12 03:30:05;;;;;;;30.50;19.80;;;;;;;1.85;100.00;100843.09;1482054;88;21803;-82
2023/01/12 03:32:31;;;;;;;27.73;16.60;;;;;;;1.89;100.00;100848.51;1474686;88;22743;-82
2023/01/12 03:34:58;;;;;;;28.33;18.17;;;;;;;1.91;100.00;100850.59;1484194;88;22061;-82
2023/01/12 03:37:35;;;;;;;27.20;19.63;;;;;;;1.97;100.00;100850.25;1484723;88;21728;-82
2023/01/12 03:40:13;;;;;;;25.80;18.40;;;;;;;2.02;100.00;100852.16;1485842;87;21729;-83
2023/01/12 03:42:46;;;;;;;24.40;17.83;;;;;;;2.10;100.00;100852.59;1482951;87;21871;-83
2023/01/12 03:45:48;;;;;;;23.33;16.47;;;;;;;2.30;100.00;100845.42;1486898;87;22617;-83
2023/01/12 03:48:42;;;;;;;26.40;17.10;;;;;;;2.30;100.00;100845.42;1484253;87;21838;-83
2023/01/12 03:51:26;;;;;;;25.07;16.70;;;;;;;2.40;100.00;100844.84;1485970;88;22852;-83
2023/01/12 03:53:55;;;;;;;25.40;17.27;;;;;;;2.59;100.00;100856.42;1482845;88;21875;-83
2023/01/12 03:56:25;;;;;;;26.23;16.77;;;;;;;2.59;100.00;100856.42;1491733;88;21848;-83
2023/01/12 03:58:52;;;;;;;25.08;17.57;;;;;;;2.66;100.00;100856.91;1477855;88;21780;-82
2023/01/12 04:01:18;;;;;;;29.27;20.27;;;;;;;2.70;100.00;100854.05;1486270;88;22237;-81
2023/01/12 04:03:45;;;;;;;30.57;20.53;;;;;;;2.75;100.00;100851.16;1482656;88;21836;-82
2023/01/12 04:06:11;;;;;;;26.93;20.00;;;;;;;2.80;100.00;100850.44;1487733;88;21948;-81
2023/01/12 04:08:37;;;;;;;23.17;16.37;;;;;;;2.86;100.00;100847.94;1484377;88;22166;-80
2023/01/12 04:12:08;;;;;;;24.47;16.97;;;;;;;2.92;100.00;100835.82;1479310;88;22180;-81
2023/01/12 04:13:32;;;;;;;23.63;16.63;;;;;;;2.94;100.00;100839.20;1479679;88;22129;-81
2023/01/12 04:15:58;;;;;;;26.50;19.53;;;;;;;3.06;100.00;100846.33;1480546;88;22068;-81
2023/01/12 04:18:24;;;;;;;28.37;19.33;;;;;;;3.13;100.00;100846.33;1481974;87;22137;-82
2023/01/12 04:20:50;;;;;;;27.93;18.47;;;;;;;3.23;100.00;100845.81;1485804;88;22544;-81
2023/01/12 04:23:17;;;;;;;30.23;19.97;;;;;;;3.30;100.00;100847.12;1486083;87;21554;-81
2023/01/12 04:25:43;;;;;;;30.20;21.37;;;;;;;3.36;100.00;100839.73;1482910;87;22101;-81
2023/01/12 04:28:09;;;;;;;26.07;18.70;;;;;;;3.41;100.00;100834.72;1482213;88;22138;-82
2023/01/12 04:30:35;;;;;;;29.67;20.37;;;;;;;3.44;100.00;100827.98;1484561;88;23019;-81
2023/01/12 04:33:08;;;;;;;30.03;18.90;;;;;;;3.46;100.00;100825.66;1487109;87;22101;-81
2023/01/12 04:35:34;;;;;;;29.60;21.07;;;;;;;3.50;100.00;100831.07;1476649;87;22277;-81
2023/01/12 04:38:06;;;;;;;28.47;19.47;;;;;;;3.53;100.00;100834.81;1485669;88;22087;-81
2023/01/12 04:40:33;;;;;;;39.47;24.83;;;;;;;3.55;100.00;100831.64;1486838;87;22122;-81
2023/01/12 04:43:09;;;;;;;35.27;22.67;;;;;;;3.57;100.00;100839.41;1481138;88;22091;-83
2023/01/12 04:45:40;;;;;;;38.27;22.70;;;;;;;3.60;100.00;100840.06;1484065;87;22194;-83
2023/01/12 04:48:10;;;;;;;35.15;22.17;;;;;;;3.64;100.00;100839.88;1487538;87;22053;-83
2023/01/12 04:50:38;;;;;;;32.40;21.93;;;;;;;3.68;100.00;100838.74;1490331;88;21308;-82
2023/01/12 04:53:08;;;;;;;35.13;21.83;;;;;;;3.72;100.00;100848.95;1483145;88;21537;-82
2023/01/12 04:55:40;;;;;;;63.77;39.47;;;;;;;3.76;100.00;100848.28;1475091;87;22081;-82
2023/01/12 04:58:07;;;;;;;55.13;33.83;;;;;;;3.76;100.00;100845.67;1485794;88;22088;-82
2023/01/12 05:00:34;;;;;;;39.40;25.27;;;;;;;3.77;100.00;100847.34;1460439;88;22306;-84
2023/01/12 05:03:02;;;;;;;27.40;20.03;;;;;;;3.78;100.00;100849.88;1484967;88;22060;-84
2023/01/12 05:05:30;;;;;;;28.63;17.93;;;;;;;3.80;100.00;100851.95;1481064;87;22114;-84
2023/01/12 05:10:54;;;;;;;26.77;18.57;;;;;;;3.90;100.00;100844.35;1465938;88;21330;-83
2023/01/12 05:13:22;;;;;;;29.20;18.50;;;;;;;3.94;100.00;100843.69;1489666;87;22002;-84
2023/01/12 05:15:48;;;;;;;32.07;19.93;;;;;;;3.96;100.00;100836.11;1489210;88;22405;-81
2023/01/12 05:18:15;;;;;;;39.37;27.07;;;;;;;4.00;100.00;100840.24;1490175;88;21375;-83
2023/01/12 05:20:41;;;;;;;51.87;34.07;;;;;;;3.99;100.00;100853.42;1484852;88;22337;-81
2023/01/12 05:23:07;;;;;;;50.37;32.57;;;;;;;3.96;100.00;100854.45;1483136;88;22081;-83
2023/01/12 05:25:34;;;;;;;39.23;26.97;;;;;;;3.97;100.00;100856.59;1482571;87;22015;-81
2023/01/12 05:28:00;;;;;;;36.77;23.37;;;;;;;3.98;100.00;100849.12;1484673;88;22095;-80
2023/01/12 05:30:30;;;;;;;31.60;22.83;;;;;;;4.02;100.00;100855.84;1478043;88;22111;-80
2023/01/12 05:32:56;;;;;;;32.43;24.13;;;;;;;4.02;100.00;100851.45;1563075;88;21978;-89
2023/01/12 05:35:22;;;;;;;29.70;19.03;;;;;;;4.07;100.00;100866.41;1391533;89;21470;-85
2023/01/12 05:37:49;;;;;;;27.50;18.63;;;;;;;4.07;100.00;100866.41;1406896;88;22063;-83
2023/01/12 05:40:15;;;;;;;27.27;18.87;;;;;;;4.10;100.00;100868.48;1407202;88;21413;-84
2023/01/12 05:45:26;;;;;;;32.47;20.87;;;;;;;4.12;100.00;100869.23;1562509;87;21390;-86
2023/01/12 05:47:57;;;;;;;26.57;18.57;;;;;;;4.12;100.00;100864.83;1407090;87;21227;-85
2023/01/12 05:50:23;;;;;;;32.50;22.90;;;;;;;4.14;100.00;100862.09;1404997;87;21608;-84
2023/01/12 05:52:52;;;;;;;26.40;17.93;;;;;;;4.14;100.00;100862.09;1407366;88;21509;-85
2023/01/12 05:55:19;;;;;;;27.40;17.93;;;;;;;4.20;100.00;100874.81;1407147;87;21323;-80
2023/01/12 05:57:45;;;;;;;36.10;23.87;;;;;;;4.19;100.00;100861.34;1407352;88;21386;-86
2023/01/12 06:00:12;;;;;;;36.10;22.93;;;;;;;4.27;100.00;100867.80;1407596;87;21257;-88
2023/01/12 06:02:38;;;;;;;32.73;21.17;;;;;;;4.32;100.00;100863.58;1406269;88;21444;-87
2023/01/12 06:05:08;;;;;;;29.03;20.33;;;;;;;4.34;100.00;100863.47;1407182;88;21257;-86
2023/01/12 06:07:33;;;;;;;30.73;21.77;;;;;;;4.33;100.00;100856.09;1568683;87;22366;-85
2023/01/12 06:10:00;;;;;;;34.33;22.40;;;;;;;4.33;100.00;100856.56;1409773;88;21257;-85
2023/01/12 06:15:00;;;;;;;35.03;21.70;;;;;;;4.35;100.00;100860.77;1422571;88;21330;-84
2023/01/12 06:17:26;;;;;;;31.93;21.10;;;;;;;4.34;100.00;100856.92;1414605;87;21308;-91
2023/01/12 06:19:55;;;;;;;32.70;22.60;;;;;;;4.33;100.00;100854.77;1480211;88;21448;-87
2023/01/12 06:22:21;;;;;;;31.67;20.57;;;;;;;4.35;100.00;100850.76;1486531;87;21360;-86
2023/01/12 06:24:48;;;;;;;28.03;19.17;;;;;;;4.37;100.00;100854.94;1483595;87;22335;-86
2023/01/12 06:27:15;;;;;;;35.10;23.67;;;;;;;4.38;100.00;100860.57;1481622;87;21367;-87
2023/01/12 06:33:42;;;;;;;33.53;22.33;;;;;;;4.38;100.00;100861.05;1487914;88;21618;-84
2023/01/12 06:36:10;;;;;;;32.03;20.73;;;;;;;4.36;100.00;100853.27;1478019;88;22431;-83
2023/01/12 06:38:36;;;;;;;28.73;19.83;;;;;;;4.36;100.00;100853.27;1486262;88;22269;-81
2023/01/12 06:42:27;;;;;;;33.53;22.90;;;;;;;4.48;100.00;100862.96;1483491;87;21367;-85
2023/01/12 06:43:40;;;;;;;34.37;23.47;;;;;;;4.48;100.00;100862.96;1474719;88;21588;-85
2023/01/12 06:46:06;;;;;;;34.43;23.07;;;;;;;4.51;100.00;100868.48;1485292;88;21451;-83
2023/01/12 06:48:32;;;;;;;34.10;22.47;;;;;;;4.56;100.00;100859.03;1486381;88;21330;-80
2023/01/12 06:51:01;;;;;;;31.77;22.27;;;;;;;4.59;100.00;100860.97;1482720;88;21344;-82
2023/01/12 06:53:27;;;;;;;33.60;23.47;;;;;;;4.65;100.00;100857.95;1479519;87;21419;-80
2023/01/12 06:55:53;;;;;;;34.10;23.50;;;;;;;4.70;100.00;100849.80;1485538;88;21478;-79
2023/01/12 06:58:20;;;;;;;33.63;22.83;;;;;;;4.74;100.00;100855.20;1485260;87;21344;-81
2023/01/12 07:00:46;;;;;;;39.63;25.03;;;;;;;4.75;100.00;100852.50;1478326;87;22460;-81
2023/01/12 07:03:17;;;;;;;30.83;20.57;;;;;;;4.80;100.00;100861.83;1487504;88;21456;-84
2023/01/12 07:05:44;;;;;;;30.47;20.70;;;;;;;4.82;100.00;100863.42;1484953;88;22180;-82
2023/01/12 07:08:14;;;;;;;31.50;20.90;;;;;;;4.87;100.00;100867.91;1477635;88;21648;-85
2023/01/12 07:10:40;;;;;;;32.83;22.10;;;;;;;4.89;100.00;100868.66;1479588;88;22354;-86
2023/01/12 07:13:06;;;;;;;30.63;21.77;;;;;;;4.93;100.00;100867.49;1482591;88;21729;-85
2023/01/12 07:15:32;;;;;;;38.77;26.33;;;;;;;4.97;100.00;100876.83;1459759;88;21433;-86
2023/01/12 07:17:58;;;;;;;33.47;22.13;;;;;;;4.97;100.00;100882.08;1483864;88;21630;-85
2023/01/12 07:20:24;;;;;;;37.30;23.23;;;;;;;4.96;100.00;100886.97;1480790;88;21462;-83
2023/01/12 07:22:51;;;;;;;36.30;22.13;;;;;;;4.95;100.00;100885.77;1483217;87;21559;-86
2023/01/12 07:25:17;;;;;;;35.07;23.17;;;;;;;4.92;100.00;100880.25;1482126;88;21456;-86
2023/01/12 07:27:55;;;;;;;32.43;23.00;;;;;;;4.96;100.00;100880.41;1481464;87;21389;-84
2023/01/12 07:30:23;;;;;;;36.00;23.80;;;;;;;4.97;100.00;100878.63;1483486;88;21352;-85
2023/01/12 07:32:49;;;;;;;34.50;24.70;;;;;;;4.93;100.00;100887.64;1482528;87;21301;-83
2023/01/12 07:35:17;;;;;;;49.67;32.20;;;;;;;4.91;100.00;100885.11;1482388;87;21793;-88
2023/01/12 07:37:52;;;;;;;43.27;28.30;;;;;;;4.90;100.00;100882.13;1440101;87;21382;-86
2023/01/12 07:40:19;;;;;;;39.33;26.87;;;;;;;4.91;100.00;100884.27;1569815;87;21175;-86
2023/01/12 07:42:45;;;;;;;42.70;28.73;;;;;;;4.92;100.00;100885.50;1406676;88;22203;-87
2023/01/12 07:45:12;;;;;;;52.77;34.20;;;;;;;5.00;100.00;100888.91;1407646;88;22063;-86
2023/01/12 07:47:38;;;;;;;71.70;43.23;;;;;;;5.04;100.00;100887.78;1406847;88;21401;-85
2023/01/12 07:50:06;;;;;;;45.77;30.70;;;;;;;5.08;100.00;100886.62;1406794;87;21316;-86
2023/01/12 07:52:33;;;;;;;39.93;26.37;;;;;;;5.13;100.00;100888.96;1404807;88;21331;-85
2023/01/12 07:54:59;;;;;;;39.67;27.17;;;;;;;5.13;100.00;100888.96;1406722;88;22314;-86
2023/01/12 07:57:25;;;;;;;41.90;27.83;;;;;;;5.11;100.00;100888.22;1407323;88;21219;-87
2023/01/12 07:59:52;;;;;;;39.30;26.33;;;;;;;5.13;100.00;100890.28;1407403;88;21547;-83
2023/01/12 08:02:18;;;;;;;37.07;24.47;;;;;;;5.16;100.00;100892.70;1407115;87;22108;-85
2023/01/12 08:04:53;;;;;;;38.50;24.17;;;;;;;5.19;100.00;100899.05;1407378;88;21390;-84
2023/01/12 08:11:37;;;;;;;37.90;24.83;;;;;;;5.22;100.00;100912.44;1543534;89;21274;-84
2023/01/12 08:14:32;;;;;;;36.67;24.43;;;;;;;5.25;100.00;100923.57;1424581;89;21377;-87
2023/01/12 08:17:02;;;;;;;39.97;25.77;;;;;;;5.27;100.00;100921.70;1381656;89;21354;-83
2023/01/12 08:19:37;;;;;;;28.77;20.48;;;;;;;5.29;100.00;100926.35;1431308;89;21437;-88
2023/01/12 08:22:09;;;;;;;38.17;26.27;;;;;;;5.34;100.00;100921.64;1383458;89;21481;-87
2023/01/12 08:24:42;;;;;;;38.03;25.50;;;;;;;5.35;100.00;100919.41;1400562;89;21671;-87
2023/01/12 08:27:09;;;;;;;41.03;27.80;;;;;;;5.39;100.00;100928.75;1436671;89;21413;-85
2023/01/12 08:29:43;;;;;;;37.27;26.03;;;;;;;5.41;100.00;100928.19;1385294;89;22101;-85
2023/01/12 08:32:28;;;;;;;39.40;26.47;;;;;;;5.45;100.00;100932.75;1491575;88;21493;-87
2023/01/12 08:34:57;;;;;;;41.57;27.33;;;;;;;5.51;100.00;100934.12;1566954;87;22232;-86
2023/01/12 08:41:32;;;;;;;53.53;30.43;;;;;;;5.62;100.00;100940.34;1569845;88;22167;-87
2023/01/12 08:44:01;;;;;;;43.13;28.67;;;;;;;5.68;100.00;100939.09;1569985;87;22137;-89
2023/01/12 08:46:38;;;;;;;37.37;24.60;;;;;;;5.75;100.00;100948.22;1409896;88;22184;-84
2023/01/12 08:49:10;;;;;;;37.40;25.40;;;;;;;5.75;100.00;100952.16;1562504;88;21249;-88
2023/01/12 08:51:38;;;;;;;35.60;23.53;;;;;;;5.81;100.00;100958.78;1402671;89;21359;-86
2023/01/12 08:54:09;;;;;;;37.83;25.67;;;;;;;5.86;100.00;100964.09;1404833;87;22226;-87
2023/01/12 08:56:35;;;;;;;44.27;25.68;;;;;;;5.94;100.00;100968.87;1456725;88;21368;-86
2023/01/12 08:59:03;;;;;;;41.10;27.07;;;;;;;5.96;99.61;100960.42;1406474;88;22129;-87
2023/01/12 09:01:30;;;;;;;34.40;23.33;;;;;;;5.99;98.61;100958.89;1406096;87;21383;-86
2023/01/12 09:03:57;;;;;;;41.90;25.40;;;;;;;6.03;98.68;100954.27;1406726;88;22070;-85
2023/01/12 09:06:30;;;;;;;38.23;23.83;;;;;;;6.07;98.10;100957.91;1405999;88;21334;-85
2023/01/12 09:09:00;;;;;;;33.73;21.27;;;;;;;6.15;97.95;100949.46;1403197;87;22182;-84
2023/01/12 09:11:28;;;;;;;33.53;21.10;;;;;;;6.23;97.38;100947.15;1403063;90;21367;-87
2023/01/12 09:13:57;;;;;;;44.13;26.90;;;;;;;6.26;95.89;100953.50;1383284;89;21487;-85
2023/01/12 09:16:26;;;;;;;43.20;24.37;;;;;;;6.31;95.84;100951.41;1470308;88;21374;-88
2023/01/12 09:18:52;;;;;;;34.77;22.67;;;;;;;6.38;96.07;100949.66;1410038;87;21397;-86
2023/01/12 09:21:22;;;;;;;33.27;21.53;;;;;;;6.47;96.03;100948.55;1569829;88;21198;-88
2023/01/12 09:23:49;;;;;;;33.37;21.77;;;;;;;6.56;95.47;100944.42;1476852;87;21857;-88
2023/01/12 09:26:18;;;;;;;36.70;22.67;;;;;;;6.66;94.46;100941.97;1480314;88;22661;-88
2023/01/12 09:28:45;;;;;;;32.67;19.00;;;;;;;6.70;93.82;100937.70;1485392;88;21375;-86
2023/01/12 09:31:15;;;;;;;27.90;19.53;;;;;;;6.74;93.83;100942.27;1484900;88;21352;-86
2023/01/12 09:33:42;;;;;;;25.83;18.37;;;;;;;6.72;91.96;100943.67;1485699;88;21383;-88
2023/01/12 09:36:18;;;;;;;26.67;17.80;;;;;;;6.68;91.54;100942.71;1486607;88;21404;-87
2023/01/12 09:38:46;;;;;;;30.87;20.47;;;;;;;6.68;91.21;100940.91;1485573;87;21509;-87
2023/01/12 09:47:18;;;;;;;29.47;19.77;;;;;;;6.90;89.15;100941.50;1484276;87;21382;-86
2023/01/12 09:49:50;;;;;;;30.97;20.87;;;;;;;7.09;87.35;100931.80;1483954;87;21448;-88
2023/01/12 09:52:24;;;;;;;29.57;18.73;;;;;;;7.79;86.14;100936.20;1480348;88;22676;-88
2023/01/12 09:54:51;;;;;;;28.63;17.83;;;;;;;8.54;83.30;100929.05;1483550;87;21418;-89
2023/01/12 09:58:14;;;;;;;26.83;16.80;;;;;;;9.29;83.11;100924.75;1486513;87;21359;-87
2023/01/12 10:00:40;;;;;;;27.47;18.97;;;;;;;9.83;80.37;100917.61;1480804;87;21286;-86
2023/01/12 10:03:27;;;;;;;32.57;19.30;;;;;;;10.30;70.31;100916.20;1485237;87;21552;-88
2023/01/12 10:05:57;;;;;;;32.80;21.00;;;;;;;10.72;73.08;100921.31;1455844;88;21551;-86
2023/01/12 10:08:47;;;;;;;27.70;16.55;;;;;;;11.17;71.88;100922.63;1482963;88;21419;-87
2023/01/12 10:11:36;;;;;;;22.27;15.70;;;;;;;11.55;72.23;100931.03;1458098;89;21397;-87
2023/01/12 10:14:18;;;;;;;20.10;14.57;;;;;;;11.83;70.32;100913.89;1478546;88;21455;-88
2023/01/12 10:17:05;;;;;;;22.73;16.40;;;;;;;11.88;65.88;100904.56;1481967;88;21566;-86
2023/01/12 10:19:55;;;;;;;23.03;15.33;;;;;;;12.03;67.21;100908.91;1480195;88;21782;-89
2023/01/12 10:22:38;;;;;;;22.77;14.57;;;;;;;12.02;63.55;100913.84;1487356;88;21499;-87
2023/01/12 10:25:31;;;;;;;24.87;17.70;;;;;;;12.12;65.18;100901.89;1464169;88;21500;-84
2023/01/12 10:28:06;;;;;;;23.97;15.10;;;;;;;12.21;64.91;100901.00;1479901;88;21551;-89
2023/01/12 10:30:36;;;;;;;24.00;16.37;;;;;;;12.33;63.11;100898.49;1461405;88;21337;-89
2023/01/12 10:33:23;;;;;;;22.15;15.03;;;;;;;12.26;59.65;100892.61;1484719;88;21551;-89
2023/01/12 10:36:00;;;;;;;23.30;15.60;;;;;;;12.38;61.95;100897.56;1491297;89;21294;-89
2023/01/12 10:38:59;;;;;;;19.53;14.20;;;;;;;12.47;61.97;100905.13;1569754;88;21395;-88
2023/01/12 10:41:29;;;;;;;16.43;13.00;;;;;;;12.47;60.28;100899.82;1569763;88;22079;-90
2023/01/12 10:44:05;;;;;;;;;;;;;;;12.60;61.73;100896.33;1572365;87;21176;-85
2023/01/12 10:46:34;;;;;;;16.60;12.00;;;;;;;12.56;55.89;100893.61;1569753;88;20223;-87
2023/01/12 10:49:17;;;;;;;21.00;13.97;;;;;;;12.71;59.99;100895.76;1385436;89;22166;-88
2023/01/12 10:51:59;;;;;;;20.80;14.47;;;;;;;12.62;56.78;100890.36;1569760;88;22213;-87
2023/01/12 10:54:34;;;;;;;19.37;13.40;;;;;;;12.58;58.15;100887.67;1569807;88;21331;-88
2023/01/12 10:57:08;;;;;;;19.70;12.93;;;;;;;12.50;57.53;100888.91;1381852;89;21300;-89
2023/01/12 10:59:38;;;;;;;16.70;11.00;;;;;;;12.37;57.24;100893.72;1483484;88;22291;-87
2023/01/12 11:02:12;;;;;;;15.55;11.78;;;;;;;12.26;57.02;100888.63;1563549;87;21352;-87
2023/01/12 11:04:44;;;;;;;15.73;10.17;;;;;;;12.34;57.24;100883.39;1542628;88;21181;-88
2023/01/12 11:07:21;;;;;;;15.33;10.73;;;;;;;12.36;56.40;100881.44;1403560;88;21294;-88
2023/01/12 11:09:48;;;;;;;16.43;10.40;;;;;;;12.17;55.22;100875.26;1569216;87;21367;-89
2023/01/12 11:12:38;;;;;;;15.90;10.60;;;;;;;11.81;55.95;100876.06;1384672;89;21420;-87
2023/01/12 11:15:12;;;;;;;15.83;10.30;;;;;;;11.57;56.76;100882.69;1402577;89;21308;-86
2023/01/12 11:18:07;;;;;;;16.00;10.60;;;;;;;11.25;57.59;100875.91;1569527;88;21457;-84
2023/01/12 11:20:56;;;;;;;23.33;16.50;;;;;;;10.94;57.38;100878.36;1407305;88;21197;-88
2023/01/12 11:23:55;;;;;;;12.07;8.87;;;;;;;10.72;57.97;100876.30;1569927;88;21354;-86
2023/01/12 11:26:26;;;;;;;13.27;9.40;;;;;;;10.41;57.79;100881.33;1415468;88;21331;-87
2023/01/12 11:28:57;;;;;;;16.20;11.33;;;;;;;10.10;58.18;100878.72;1405979;88;21405;-89
2023/01/12 11:31:27;;;;;;;15.08;9.58;;;;;;;9.85;58.94;100878.17;1569639;88;21308;-83
2023/01/12 11:34:01;;;;;;;14.47;10.53;;;;;;;9.63;59.11;100883.12;1405269;88;21470;-87
2023/01/12 11:36:35;;;;;;;17.73;10.53;;;;;;;9.39;59.44;100885.21;1475500;88;21286;-88
2023/01/12 11:39:19;;;;;;;14.83;9.90;;;;;;;9.16;59.64;100885.81;1403886;89;21455;-88
2023/01/12 11:45:18;;;;;;;16.75;10.58;;;;;;;8.85;61.20;100886.17;1563588;88;22166;-87
2023/01/12 11:47:52;;;;;;;19.37;13.00;;;;;;;8.77;62.21;100882.83;1569008;88;21543;-85
2023/01/12 11:50:27;;;;;;;21.47;13.57;;;;;;;8.83;62.69;100873.57;1402955;87;21294;-88
2023/01/12 11:52:55;;;;;;;20.73;12.93;;;;;;;9.00;63.39;100861.97;1403369;88;21367;-89
2023/01/12 11:55:59;;;;;;;19.90;12.77;;;;;;;9.37;63.69;100865.52;1405793;88;21308;-83
2023/01/12 11:58:46;;;;;;;17.03;11.03;;;;;;;9.64;63.75;100861.53;1511569;88;21433;-84
2023/01/12 12:01:33;;;;;;;17.10;10.57;;;;;;;9.87;62.50;100861.70;1483927;88;22326;-86
2023/01/12 12:04:03;;;;;;;14.80;10.70;;;;;;;9.89;61.47;100861.06;1486810;87;21404;-87
2023/01/12 12:07:07;;;;;;;15.67;10.07;;;;;;;9.97;61.06;100856.94;1460176;88;21499;-83
2023/01/12 12:10:03;;;;;;;18.43;10.27;;;;;;;10.19;61.24;100854.09;1482258;88;21418;-84
2023/01/12 12:12:52;;;;;;;13.00;9.70;;;;;;;10.59;61.51;100853.25;1413224;92;21507;-86
2023/01/12 12:15:32;;;;;;;14.03;10.13;;;;;;;10.97;60.12;100848.45;1472683;88;21618;-89
2023/01/12 12:18:19;;;;;;;;;;;;;;;11.21;60.26;100851.15;1569668;88;21293;-88
2023/01/12 12:21:13;;;;;;;19.37;10.13;;;;;;;11.28;57.46;100843.83;1410892;88;20283;-87